Latest Coastal Weather Observations for Cape Borda

IDS60701

Issued at 1:35 am CDT Tuesday 25 November 2014 (issued every 10 minutes, with the page automatically refreshed every 10 minutes)

About coastal observations | Map of coastal stations | Coastal observations for SA | Marine services | Other Formats
Station Details ID: 022823 Name: CAPE BORDA Lat: -35.75 Lon: 136.60 Height: 158.0 m
Data from the previous 72 hours. | See also: Recent months at Cape Borda
Date/Time
CDT
Temp

°C
Wind Pressure Rain
since 9am
mm
Weather Cloud Vis
km
Sea
Height
m
Swell
Dir
 
Speed
knots
Gust
knots
hPa Trend Height
m
Period
s
Dir
25/01:30am 12.7 SW 10 15 1020.1 - 0.0 - - - - - - -
25/01:00am 12.6 SSW 11 17 1020.1 - 0.0 - - - - - - -
25/12:30am 12.4 SSW 10 15 1020.2 - 0.0 - - - - - - -
25/12:00am 12.8 SW 12 17 1020.2 - 0.0 - - - - - - -
 
Date/Time
CDT
Temp

°C
Wind Pressure Rain
since 9am
mm
Weather Cloud Vis
km
Sea
Height
m
Swell
Dir
 
Speed
knots
Gust
knots
hPa Trend Height
m
Period
s
Dir
24/11:30pm 12.9 SSW 13 19 1020.3 - 0.0 - - - - - - -
24/11:00pm 13.2 SW 13 17 1020.1 - 0.0 - - - - - - -
24/10:30pm 13.3 SW 13 18 1020.1 - 0.0 - - - - - - -
24/10:00pm 13.3 SW 14 20 1019.8 - 0.0 - - - - - - -
24/09:30pm 13.5 SW 13 20 1019.5 - 0.0 - - - - - - -
24/09:00pm 13.5 SW 15 19 1019.0 - 0.0 - - - - - - -
24/08:30pm 13.6 SW 16 23 1018.7 - 0.0 - - - - - - -
24/08:00pm 14.1 SW 14 19 1018.2 - 0.0 - - - - - - -
24/07:30pm 14.6 SW 15 20 1017.9 - 0.0 - - - - - - -
24/07:00pm 14.8 SW 16 24 1017.6 - 0.0 - - - - - - -
24/06:30pm 16.2 SW 16 23 1017.3 - 0.0 - - - - - - -
24/06:00pm 16.2 WSW 16 22 1017.0 - 0.0 - - - - - - -
24/05:30pm 16.9 WSW 16 23 1016.9 - 0.0 - - - - - - -
24/05:00pm 16.7 WSW 17 24 1016.9 - 0.0 - - - - - - -
24/04:30pm 17.8 WSW 16 23 1016.6 - 0.0 - - - - - - -
24/04:00pm 17.6 WSW 17 22 1016.5 - 0.0 - - - - - - -
24/03:30pm 17.5 SW 17 28 1016.2 - 0.0 - - - - - - -
24/03:27pm 18.0 SW 17 27 1016.3 - 0.0 - - - - - - -
24/03:00pm 16.7 SW 18 25 1016.0 - 0.0 - - - - - - -
24/02:30pm 17.7 WSW 16 23 1016.1 - 0.0 - - - - - - -
24/02:00pm 18.0 WSW 16 24 1016.1 - 0.0 - - - - - - -
24/01:30pm 17.6 SW 19 25 1015.9 - 0.0 - - - - - - -
24/01:00pm 18.2 WSW 16 24 1015.8 - 0.0 - - - - - - -
24/12:30pm 18.2 WSW 15 21 1015.7 - 0.0 - - - - - - -
24/12:00pm 17.7 SW 17 23 1015.3 - 0.0 - - - - - - -
24/11:30am 17.4 SW 17 24 1015.2 - 0.0 - - - - - - -
24/11:00am 17.2 SW 18 26 1015.0 - 0.0 - - - - - - -
24/10:30am 17.1 SW 17 22 1014.6 - 0.0 - - - - - - -
24/10:00am 17.2 SW 15 21 1014.4 - 0.0 - - - - - - -
24/09:30am 16.6 SW 15 22 1014.2 - 0.0 - - - - - - -
24/09:00am 16.2 SW 17 23 1013.6 - 0.2 - - - - - - -
24/08:30am 15.8 SW 16 23 1013.1 - 0.2 - - - - - - -
24/08:00am 15.4 SW 14 19 1012.7 - 0.2 - - - - - - -
24/07:30am 15.1 SW 14 20 1012.1 - 0.2 - - - - - - -
24/07:00am 14.9 SW 15 21 1011.6 - 0.2 - - - - - - -
24/06:30am 15.0 SW 14 19 1011.1 - 0.2 - - - - - - -
24/06:00am 15.2 SW 12 16 1010.8 - 0.2 - - - - - - -
24/05:30am 15.2 SW 10 15 1010.5 - 0.2 - - - - - - -
24/05:00am 15.0 SSW 11 14 1010.0 - 0.2 - - - - - - -
24/04:30am 14.6 SSW 10 13 1010.2 - 0.2 - - - - - - -
24/04:00am 13.8 S 11 15 1009.9 - 0.2 - - - - - - -
24/03:30am 13.6 S 11 14 1009.6 - 0.2 - - - - - - -
24/03:00am 13.8 S 12 15 1009.3 - 0.2 - - - - - - -
24/02:30am 13.9 S 13 17 1009.7 - 0.2 - - - - - - -
24/02:00am 13.5 S 12 16 1009.6 - 0.2 - - - - - - -
24/01:30am 13.7 SSE 12 15 1010.1 - 0.2 - - - - - - -
24/01:00am 14.7 SSE 12 15 1010.4 - 0.2 - - - - - - -
24/12:30am 14.6 SSE 13 16 1010.3 - 0.0 - - - - - - -
24/12:00am 14.7 S 14 18 1010.1 - 0.0 - - - - - - -
 
Date/Time
CDT
Temp

°C
Wind Pressure Rain
since 9am
mm
Weather Cloud Vis
km
Sea
Height
m
Swell
Dir
 
Speed
knots
Gust
knots
hPa Trend Height
m
Period
s
Dir
23/11:30pm 14.9 SSE 14 18 1010.6 - 0.0 - - - - - - -
23/11:00pm 15.0 SSE 13 17 1010.5 - 0.0 - - - - - - -
23/10:30pm 15.1 SSE 14 18 1010.6 - 0.0 - - - - - - -
23/10:00pm 15.1 SSE 14 18 1010.3 - 0.0 - - - - - - -
23/09:30pm 15.2 SSE 13 16 1010.4 - 0.0 - - - - - - -
23/09:00pm 15.9 SSE 13 16 1010.2 - 0.0 - - - - - - -
23/08:30pm 16.1 SSE 11 15 1010.4 - 0.0 - - - - - - -
23/08:00pm 16.7 S 11 15 1010.5 - 0.0 - - - - - - -
23/07:30pm 17.4 S 11 14 1010.3 - 0.0 - - - - - - -
23/07:00pm 19.0 SSW 11 14 1010.2 - 0.0 - - - - - - -
23/06:30pm 19.9 SSW 11 16 1010.2 - 0.0 - - - - - - -
23/06:00pm 20.0 SW 9 12 1010.1 - 0.0 - - - - - - -
23/05:30pm 21.4 SW 7 10 1010.4 - 0.0 - - - - - - -
23/05:00pm 20.4 WSW 5 7 1010.6 - 0.0 - - - - - - -
23/04:30pm 20.1 NW 6 8 1011.2 - 0.0 - - - - - - -
23/04:00pm 19.3 NNE 4 7 1011.5 - 0.0 - - - - - - -
23/03:30pm 20.8 N 7 9 1011.9 - 0.0 - - - - - - -
23/01:00pm 18.3 NNE 10 13 1012.4 - 0.0 - - - - - - -
23/12:30pm 18.9 N 10 13 1012.8 - 0.0 - - - - - - -
23/12:00pm 18.7 N 9 11 1013.2 - 0.0 - - - - - - -
23/11:30am 19.0 N 10 13 1013.3 - 0.0 - - - - - - -
23/11:00am 18.2 N 8 12 1013.1 - 0.0 - - - - - - -
23/10:30am 17.3 N 8 11 1013.0 - 0.0 - - - - - - -
23/10:00am 17.4 N 7 9 1012.8 - 0.0 - - - - - - -
23/09:30am 16.6 N 6 9 1012.7 - 0.0 - - - - - - -
23/09:00am 16.0 NNE 7 9 1012.5 - 0.0 - - - - - - -
23/08:30am 15.5 NNE 8 11 1012.5 - 0.0 - - - - - - -
23/08:00am 15.0 NE 7 10 1012.4 - 0.0 - - - - - - -
23/07:30am 14.4 NE 5 8 1012.2 - 0.0 - - - - - - -
23/07:00am 13.4 ENE 5 6 1011.8 - 0.0 - - - - - - -
23/06:30am 12.4 NE 7 8 1011.8 - 0.0 - - - - - - -
23/06:00am 12.0 NNE 6 7 1011.7 - 0.0 - - - - - - -
23/05:30am 11.9 NE 6 7 1011.4 - 0.0 - - - - - - -
23/05:00am 11.7 NNE 5 5 1011.4 - 0.0 - - - - - - -
23/04:30am 12.1 NNE 4 5 1011.5 - 0.0 - - - - - - -
23/04:00am 12.3 NE 3 4 1011.6 - 0.0 - - - - - - -
23/03:30am 12.5 NE 4 5 1011.7 - 0.0 - - - - - - -
23/03:00am 12.2 E 4 5 1011.8 - 0.0 - - - - - - -
23/02:30am 12.6 CALM 0 0 1012.1 - 0.0 - - - - - - -
23/02:00am 12.5 CALM 0 0 1012.2 - 0.0 - - - - - - -
23/01:30am 12.0 CALM 0 0 1012.4 - 0.0 - - - - - - -
23/01:00am 12.1 S 1 3 1012.5 - 0.0 - - - - - - -
23/12:30am 12.4 S 4 4 1012.6 - 0.0 - - - - - - -
23/12:00am 12.6 S 5 6 1012.5 - 0.0 - - - - - - -
 
Date/Time
CDT
Temp

°C
Wind Pressure Rain
since 9am
mm
Weather Cloud Vis
km
Sea
Height
m
Swell
Dir
 
Speed
knots
Gust
knots
hPa Trend Height
m
Period
s
Dir
22/11:30pm 12.8 S 5 6 1012.6 - 0.0 - - - - - - -
22/11:00pm 13.5 SSW 6 8 1012.4 - 0.0 - - - - - - -
22/10:30pm 14.2 SSW 9 11 1012.3 - 0.0 - - - - - - -
22/10:00pm 14.4 SW 9 11 1012.3 - 0.0 - - - - - - -
22/09:30pm 14.9 SW 11 18 1011.9 - 0.0 - - - - - - -
22/09:00pm 14.7 SSW 11 15 1011.4 - 0.0 - - - - - - -
22/08:30pm 15.0 SW 14 19 1011.1 - 0.0 - - - - - - -
22/08:00pm 15.6 SW 14 18 1010.6 - 0.0 - - - - - - -
22/07:30pm 15.9 SW 14 19 1010.3 - 0.0 - - - - - - -
22/07:00pm 16.5 SW 15 19 1009.7 - 0.0 - - - - - - -
22/06:30pm 17.2 SW 17 22 1009.3 - 0.0 - - - - - - -
22/06:00pm 17.9 SW 15 22 1008.9 - 0.0 - - - - - - -
22/05:30pm 17.9 SW 16 21 1009.0 - 0.0 - - - - - - -
22/05:00pm 18.5 SW 15 19 1008.9 - 0.0 - - - - - - -
22/04:30pm 18.7 SW 15 21 1008.9 - 0.0 - - - - - - -
22/04:00pm 18.8 SW 15 21 1008.6 - 0.0 - - - - - - -
22/03:30pm 18.7 SW 15 19 1008.6 - 0.0 - - - - - - -
22/03:00pm 19.5 WSW 13 18 1008.3 - 0.0 - - - - - - -
22/02:30pm 18.6 SW 13 17 1008.4 - 0.0 - - - - - - -
22/02:00pm 19.2 SW 15 21 1008.0 - 0.0 - - - - - - -
22/01:30pm 19.6 SW 16 21 1007.7 - 0.0 - - - - - - -
22/01:00pm 19.5 SW 14 19 1007.6 - 0.0 - - - - - - -
22/12:30pm 20.6 SW 14 18 1007.3 - 0.0 - - - - - - -
22/12:00pm 20.9 WSW 11 13 1007.0 - 0.0 - - - - - - -
22/11:30am 21.0 W 9 12 1007.2 - 0.0 - - - - - - -
22/11:00am 20.2 W 11 14 1007.3 - 0.0 - - - - - - -
22/10:30am 19.5 WSW 13 17 1007.0 - 0.0 - - - - - - -
22/10:00am 20.1 W 10 14 1007.2 - 0.0 - - - - - - -
22/09:30am 20.2 NW 10 12 1007.3 - 0.0 - - - - - - -
22/09:00am 19.9 N 9 13 1006.8 - 1.8 - - - - - - -
22/08:30am 19.3 NE 8 10 1006.3 - 1.8 - - - - - - -
22/08:00am 18.4 NE 10 14 1006.1 - 1.8 - - - - - - -
22/06:30am 16.5 NE 8 9 1005.7 - 1.8 - - - - - - -
22/04:46am 17.2 ENE 4 7 1006.8 - 0.2 - - - - - - -

Other Formats:

Comma delimited format used in spreadsheet applications
http://www.bom.gov.au/fwo/IDS60701/IDS60701.95805.axf

JavaScript Object Notation format (JSON) in row-major order
http://www.bom.gov.au/fwo/IDS60701/IDS60701.95805.json